createdAt,value
2019-02-15T00:00:34.519Z,17.50
2019-02-15T00:01:34.488Z,14.90
2019-02-15T00:02:34.473Z,15.80
2019-02-15T00:03:34.461Z,17.20
2019-02-15T00:04:34.453Z,15.20
2019-02-15T00:05:34.456Z,15.40
2019-02-15T00:06:34.433Z,15.10
2019-02-15T00:07:34.420Z,15.00
2019-02-15T00:08:34.408Z,14.30
2019-02-15T00:09:34.399Z,15.00
2019-02-15T00:10:34.407Z,15.20
2019-02-15T00:11:34.378Z,15.70
2019-02-15T00:12:34.371Z,15.20
2019-02-15T00:13:34.363Z,17.30
2019-02-15T00:14:34.347Z,14.80
2019-02-15T00:15:34.348Z,14.60
2019-02-15T00:16:34.346Z,13.60
2019-02-15T00:17:34.317Z,15.00
2019-02-15T00:18:34.311Z,14.50
2019-02-15T00:19:34.298Z,14.20
2019-02-15T00:20:34.295Z,14.10
2019-02-15T00:21:34.287Z,17.10
2019-02-15T00:22:34.259Z,17.50
2019-02-15T00:23:34.256Z,13.60
2019-02-15T00:24:34.240Z,15.50
2019-02-15T00:25:34.275Z,15.30
2019-02-15T00:26:34.223Z,15.00
2019-02-15T00:27:34.218Z,16.90
2019-02-15T00:28:34.195Z,14.90
2019-02-15T00:29:34.184Z,15.10
2019-02-15T00:30:34.174Z,16.20
2019-02-15T00:31:34.179Z,16.20
2019-02-15T00:32:34.151Z,14.90
2019-02-15T00:33:34.149Z,15.00
2019-02-15T00:34:34.146Z,16.70
2019-02-15T00:35:34.127Z,16.00
2019-02-15T00:36:34.124Z,13.90
2019-02-15T00:37:34.102Z,13.80
2019-02-15T00:38:34.091Z,14.70
2019-02-15T00:39:34.081Z,14.90
2019-02-15T00:40:34.075Z,14.90
2019-02-15T00:41:34.078Z,13.70
2019-02-15T00:42:34.053Z,14.00
2019-02-15T00:43:34.044Z,15.50
2019-02-15T00:44:34.029Z,15.90
2019-02-15T00:45:34.031Z,14.10
2019-02-15T00:46:34.019Z,14.10
2019-02-15T00:47:34.010Z,15.10
2019-02-15T00:48:33.983Z,15.10
2019-02-15T00:49:33.975Z,16.00
2019-02-15T00:50:33.972Z,16.10
2019-02-15T00:51:33.971Z,14.00
2019-02-15T00:52:33.941Z,13.50
2019-02-15T00:53:33.930Z,16.30
2019-02-15T00:54:33.918Z,15.30
2019-02-15T00:55:33.916Z,15.80
2019-02-15T00:56:33.913Z,14.70
2019-02-15T00:57:33.887Z,15.10
2019-02-15T00:58:33.877Z,14.30
2019-02-15T00:59:33.865Z,14.00
2019-02-15T01:00:33.854Z,13.50
2019-02-15T01:01:33.865Z,15.70
2019-02-15T01:02:33.839Z,13.20
2019-02-15T01:03:33.822Z,15.70
2019-02-15T01:04:33.813Z,13.80
2019-02-15T01:05:33.803Z,15.70
2019-02-15T01:06:33.806Z,13.90
2019-02-15T01:07:33.783Z,14.90
2019-02-15T01:08:33.788Z,15.30
2019-02-15T01:09:33.764Z,14.60
2019-02-15T01:10:34.373Z,15.70
2019-02-15T01:11:33.783Z,16.20
2019-02-15T01:12:33.728Z,14.20
2019-02-15T01:13:33.728Z,15.40
2019-02-15T01:14:33.705Z,13.40
2019-02-15T01:15:33.713Z,15.60
2019-02-15T01:16:33.684Z,15.90
2019-02-15T01:17:33.697Z,13.90
2019-02-15T01:18:33.680Z,16.50
2019-02-15T01:19:33.657Z,15.60
2019-02-15T01:20:33.643Z,14.10
2019-02-15T01:21:33.631Z,16.00
2019-02-15T01:22:33.635Z,12.70
2019-02-15T01:23:33.612Z,13.60
2019-02-15T01:24:33.622Z,13.40
2019-02-15T01:25:33.602Z,14.30
2019-02-15T01:26:33.579Z,15.00
2019-02-15T01:27:33.584Z,16.20
2019-02-15T01:28:33.561Z,14.70
2019-02-15T01:29:33.546Z,16.80
2019-02-15T01:30:33.537Z,14.40
2019-02-15T01:31:33.531Z,15.60
2019-02-15T01:32:33.527Z,16.20
2019-02-15T01:33:33.505Z,13.50
2019-02-15T01:34:33.499Z,16.20
2019-02-15T01:35:33.484Z,14.40
2019-02-15T01:36:33.476Z,14.70
2019-02-15T01:37:33.789Z,16.30
2019-02-15T01:38:33.452Z,15.40
2019-02-15T01:39:33.444Z,90.10
2019-02-15T01:40:33.430Z,54.00
2019-02-15T01:41:33.421Z,31.80
2019-02-15T01:42:33.420Z,21.90
2019-02-15T01:43:39.889Z,17.90
2019-02-15T01:44:34.384Z,18.40
2019-02-15T01:45:33.377Z,19.90
2019-02-15T01:46:33.365Z,19.30
2019-02-15T01:47:33.356Z,21.40
2019-02-15T01:48:33.356Z,20.70
2019-02-15T01:49:33.372Z,20.30
2019-02-15T01:50:33.324Z,21.80
2019-02-15T01:51:33.313Z,18.80
2019-02-15T01:52:33.300Z,18.00
2019-02-15T01:53:33.310Z,17.80
2019-02-15T01:54:33.280Z,16.40
2019-02-15T01:55:33.290Z,17.90
2019-02-15T01:56:33.270Z,18.40
2019-02-15T01:57:33.249Z,15.30
2019-02-15T01:58:33.252Z,16.10
2019-02-15T01:59:33.227Z,43.10
2019-02-15T02:00:33.224Z,70.30
2019-02-15T02:01:33.207Z,89.20
2019-02-15T02:02:33.196Z,39.30
2019-02-15T02:03:33.195Z,44.20
2019-02-15T02:04:33.175Z,111.80
2019-02-15T02:05:33.180Z,95.10
2019-02-15T02:06:33.158Z,67.10
2019-02-15T02:07:33.140Z,84.00
2019-02-15T02:08:33.152Z,63.20
2019-02-15T02:09:33.127Z,27.30
2019-02-15T02:10:33.124Z,17.00
2019-02-15T02:11:33.100Z,14.40
2019-02-15T02:12:33.096Z,15.60
2019-02-15T02:13:33.387Z,15.70
2019-02-15T02:14:33.067Z,14.30
2019-02-15T02:15:33.055Z,15.00
2019-02-15T02:16:33.051Z,14.40
2019-02-15T02:17:33.033Z,14.60
2019-02-15T02:18:33.034Z,13.70
2019-02-15T02:19:33.024Z,13.20
2019-02-15T02:20:33.005Z,14.20
2019-02-15T02:21:32.993Z,13.60
2019-02-15T02:22:32.986Z,14.90
2019-02-15T02:23:32.976Z,13.90
2019-02-15T02:24:32.982Z,13.30
2019-02-15T02:25:32.950Z,13.80
2019-02-15T02:26:32.940Z,14.30
2019-02-15T02:27:32.928Z,13.70
2019-02-15T02:28:32.918Z,17.50
2019-02-15T02:29:32.919Z,14.80
2019-02-15T02:30:32.918Z,15.20
2019-02-15T02:31:32.890Z,12.90
2019-02-15T02:32:32.877Z,15.00
2019-02-15T02:33:32.863Z,12.90
2019-02-15T02:34:32.865Z,15.10
2019-02-15T02:35:32.852Z,14.90
2019-02-15T02:36:32.831Z,14.90
2019-02-15T02:37:32.823Z,15.20
2019-02-15T02:38:32.811Z,14.10
2019-02-15T02:39:32.818Z,13.00
2019-02-15T02:40:32.801Z,14.10
2019-02-15T02:41:32.791Z,14.70
2019-02-15T02:42:32.767Z,15.20
2019-02-15T02:43:32.757Z,13.80
2019-02-15T02:44:32.785Z,13.80
2019-02-15T02:45:32.735Z,12.70
2019-02-15T02:46:32.733Z,14.00
2019-02-15T02:47:32.717Z,15.70
2019-02-15T02:48:32.711Z,13.90
2019-02-15T02:49:32.694Z,14.90
2019-02-15T02:50:32.696Z,12.90
2019-02-15T02:51:32.676Z,13.10
2019-02-15T02:52:32.680Z,15.20
2019-02-15T02:53:32.652Z,14.10
2019-02-15T02:54:32.645Z,13.80
2019-02-15T02:55:32.638Z,14.70
2019-02-15T02:56:32.618Z,14.00
2019-02-15T02:57:32.610Z,12.50
2019-02-15T02:58:32.606Z,14.00
2019-02-15T02:59:32.590Z,14.00
2019-02-15T03:00:33.709Z,12.70
2019-02-15T03:01:32.572Z,14.80
2019-02-15T03:02:32.569Z,13.40
2019-02-15T03:03:32.546Z,13.50
2019-02-15T03:04:32.544Z,12.90
2019-02-15T03:05:32.534Z,15.20
2019-02-15T03:06:32.513Z,15.70
2019-02-15T03:07:32.500Z,13.30
2019-02-15T03:08:32.490Z,16.20
2019-02-15T03:09:32.510Z,15.40
2019-02-15T03:10:32.491Z,16.50
2019-02-15T03:11:32.461Z,18.50
2019-02-15T03:12:32.450Z,16.50
2019-02-15T03:13:32.438Z,14.70
2019-02-15T03:14:32.427Z,15.60
2019-02-15T03:15:32.426Z,15.50
2019-02-15T03:16:32.406Z,15.20
2019-02-15T03:17:32.398Z,15.40
2019-02-15T03:18:32.394Z,14.60
2019-02-15T03:19:32.374Z,13.90
2019-02-15T03:20:32.398Z,16.30
2019-02-15T03:21:32.353Z,15.50
2019-02-15T03:22:32.349Z,14.00
2019-02-15T03:23:32.346Z,16.50
2019-02-15T03:24:32.321Z,14.00
2019-02-15T03:25:32.309Z,14.40
2019-02-15T03:26:32.314Z,15.20
2019-02-15T03:27:32.300Z,14.90
2019-02-15T03:28:32.289Z,15.10
2019-02-15T03:29:32.279Z,16.40
2019-02-15T03:30:32.256Z,12.70
2019-02-15T03:31:32.285Z,16.00
2019-02-15T03:32:32.248Z,14.20
2019-02-15T03:33:32.230Z,14.90
2019-02-15T03:34:32.214Z,16.80
2019-02-15T03:35:32.205Z,14.50
2019-02-15T03:36:32.202Z,15.60
2019-02-15T03:37:32.197Z,17.10
2019-02-15T03:38:32.170Z,14.40
2019-02-15T03:39:32.169Z,15.90
2019-02-15T03:40:32.150Z,14.80
2019-02-15T03:41:32.175Z,14.30
2019-02-15T03:42:32.129Z,15.50
2019-02-15T03:43:32.116Z,16.40
2019-02-15T03:44:32.109Z,16.90
2019-02-15T03:45:32.095Z,13.80
2019-02-15T03:46:32.099Z,14.30
2019-02-15T03:47:32.073Z,14.00
2019-02-15T03:48:32.066Z,15.50
2019-02-15T03:49:32.051Z,15.40
2019-02-15T03:50:32.042Z,15.90
2019-02-15T03:51:32.052Z,15.10
2019-02-15T03:52:32.020Z,15.50
2019-02-15T03:53:32.011Z,14.30
2019-02-15T03:54:31.999Z,15.40
2019-02-15T03:55:31.993Z,16.90
2019-02-15T03:56:31.990Z,13.30
2019-02-15T03:57:31.967Z,14.80
2019-02-15T03:58:31.958Z,14.90
2019-02-15T03:59:31.949Z,16.00
2019-02-15T04:00:31.934Z,15.90
2019-02-15T04:01:31.938Z,16.20
2019-02-15T04:02:31.913Z,15.10
2019-02-15T04:03:31.916Z,15.40
2019-02-15T04:04:31.893Z,17.00
2019-02-15T04:05:31.880Z,12.60
2019-02-15T04:06:31.889Z,15.40
2019-02-15T04:07:31.862Z,14.80
2019-02-15T04:08:31.859Z,14.70
2019-02-15T04:09:31.865Z,15.50
2019-02-15T04:10:31.826Z,15.50
2019-02-15T04:11:31.827Z,15.40
2019-02-15T04:12:32.374Z,17.40
2019-02-15T04:13:31.797Z,15.00
2019-02-15T04:14:33.126Z,15.40
2019-02-15T04:15:31.783Z,15.00
2019-02-15T04:16:31.774Z,17.80
2019-02-15T04:17:31.752Z,17.10
2019-02-15T04:18:31.744Z,16.70
2019-02-15T04:19:31.732Z,16.00
2019-02-15T04:20:31.724Z,14.90
2019-02-15T04:21:31.747Z,14.40
2019-02-15T04:22:31.701Z,16.20
2019-02-15T04:23:31.690Z,14.70
2019-02-15T04:24:31.680Z,14.40
2019-02-15T04:25:31.665Z,14.50
2019-02-15T04:26:31.662Z,16.00
2019-02-15T04:27:31.662Z,17.40
2019-02-15T04:28:31.635Z,15.70
2019-02-15T04:29:31.631Z,16.10
2019-02-15T04:30:31.615Z,15.70
2019-02-15T04:31:31.610Z,13.00
2019-02-15T04:32:31.603Z,13.70
2019-02-15T04:33:31.584Z,16.00
2019-02-15T04:34:31.570Z,14.20
2019-02-15T04:35:31.564Z,16.10
2019-02-15T04:36:31.560Z,14.90
2019-02-15T04:37:31.563Z,16.10
2019-02-15T04:38:31.529Z,15.10
2019-02-15T04:39:31.523Z,16.10
2019-02-15T04:40:31.508Z,15.80
2019-02-15T04:41:31.497Z,16.70
2019-02-15T04:42:31.495Z,16.10
2019-02-15T04:43:31.486Z,16.20
2019-02-15T04:44:31.468Z,14.60
2019-02-15T04:45:31.452Z,17.30
2019-02-15T04:46:31.441Z,17.30
2019-02-15T04:47:31.444Z,17.80
2019-02-15T04:48:31.423Z,14.30
2019-02-15T04:49:31.410Z,17.60
2019-02-15T04:50:31.401Z,19.50
2019-02-15T04:51:31.402Z,18.00
2019-02-15T04:52:31.417Z,19.30
2019-02-15T04:53:31.369Z,16.30
2019-02-15T04:54:31.360Z,20.40
2019-02-15T04:55:31.359Z,18.30
2019-02-15T04:56:31.342Z,19.20
2019-02-15T04:57:31.342Z,19.40
2019-02-15T04:58:31.314Z,21.40
2019-02-15T04:59:31.304Z,17.70
2019-02-15T05:00:31.304Z,17.30
2019-02-15T05:01:31.286Z,19.30
2019-02-15T05:02:31.297Z,18.20
2019-02-15T05:03:31.261Z,17.30
2019-02-15T05:04:31.252Z,17.50
2019-02-15T05:05:31.241Z,21.20
2019-02-15T05:06:31.235Z,16.10
2019-02-15T05:07:31.250Z,20.00
2019-02-15T05:08:31.211Z,20.00
2019-02-15T05:09:31.228Z,18.40
2019-02-15T05:10:31.187Z,20.20
2019-02-15T05:11:31.180Z,16.60
2019-02-15T05:12:31.182Z,17.80
2019-02-15T05:13:31.161Z,17.20
2019-02-15T05:14:31.145Z,18.60
2019-02-15T05:15:31.137Z,16.80
2019-02-15T05:16:31.125Z,17.40
2019-02-15T05:17:31.126Z,17.90
2019-02-15T05:18:31.119Z,21.50
2019-02-15T05:19:31.091Z,20.20
2019-02-15T05:20:31.081Z,17.50
2019-02-15T05:21:31.070Z,15.80
2019-02-15T05:22:31.079Z,16.90
2019-02-15T05:23:31.049Z,19.00
2019-02-15T05:24:31.040Z,17.50
2019-02-15T05:25:31.030Z,19.50
2019-02-15T05:26:31.018Z,21.50
2019-02-15T05:27:31.027Z,19.50
2019-02-15T05:28:31.002Z,20.00
2019-02-15T05:29:30.985Z,18.80
2019-02-15T05:30:30.976Z,21.00
2019-02-15T05:31:30.969Z,18.90
2019-02-15T05:32:30.963Z,17.20
2019-02-15T05:33:30.942Z,17.20
2019-02-15T05:34:30.939Z,20.20
2019-02-15T05:35:30.926Z,19.40
2019-02-15T05:36:30.912Z,20.70
2019-02-15T05:37:30.923Z,18.90
2019-02-15T05:38:30.890Z,19.90
2019-02-15T05:39:30.881Z,18.90
2019-02-15T05:40:30.879Z,17.90
2019-02-15T05:41:30.865Z,18.30
2019-02-15T05:42:30.909Z,18.40
2019-02-15T05:43:30.834Z,20.00
2019-02-15T05:44:30.831Z,20.20
2019-02-15T05:45:30.814Z,18.30
2019-02-15T05:46:30.804Z,17.20
2019-02-15T05:47:30.796Z,19.00
2019-02-15T05:48:30.796Z,20.40
2019-02-15T05:49:30.771Z,21.00
2019-02-15T05:50:30.764Z,16.80
2019-02-15T05:51:30.751Z,17.80
2019-02-15T05:52:30.751Z,18.60
2019-02-15T05:53:30.744Z,15.60
2019-02-15T05:54:30.729Z,17.00
2019-02-15T05:55:30.708Z,18.50
2019-02-15T05:56:30.709Z,14.70
2019-02-15T05:57:30.688Z,17.00
2019-02-15T05:58:30.695Z,15.70
2019-02-15T05:59:30.669Z,15.40
2019-02-15T06:00:37.014Z,15.70
2019-02-15T06:01:31.651Z,18.70
2019-02-15T06:02:30.635Z,15.90
2019-02-15T06:03:30.642Z,17.90
2019-02-15T06:04:30.618Z,18.50
2019-02-15T06:05:30.603Z,17.90
2019-02-15T06:06:30.596Z,16.50
2019-02-15T06:07:30.583Z,16.60
2019-02-15T06:08:31.371Z,19.30
2019-02-15T06:09:30.562Z,19.80
2019-02-15T06:10:30.550Z,19.90
2019-02-15T06:11:30.543Z,18.80
2019-02-15T06:12:30.555Z,20.50
2019-02-15T06:13:30.985Z,18.50
2019-02-15T06:14:30.522Z,21.00
2019-02-15T06:15:30.503Z,22.60
2019-02-15T06:16:30.489Z,19.10
2019-02-15T06:17:30.474Z,20.10
2019-02-15T06:18:30.477Z,19.90
2019-02-15T06:19:30.483Z,19.20
2019-02-15T06:20:30.466Z,19.80
2019-02-15T06:21:30.456Z,20.10
2019-02-15T06:22:30.450Z,18.60
2019-02-15T06:23:30.459Z,21.90
2019-02-15T06:24:30.404Z,19.90
2019-02-15T06:25:30.396Z,21.60
2019-02-15T06:26:30.381Z,22.80
2019-02-15T06:27:30.377Z,22.20
2019-02-15T06:28:30.371Z,20.30
2019-02-15T06:29:30.356Z,22.60
2019-02-15T06:30:30.340Z,19.30
2019-02-15T06:31:30.343Z,20.00
2019-02-15T06:32:30.316Z,18.60
2019-02-15T06:33:30.327Z,17.50
2019-02-15T06:34:30.299Z,17.90
2019-02-15T06:35:30.289Z,17.10
2019-02-15T06:36:30.278Z,20.10
2019-02-15T06:37:30.267Z,16.80
2019-02-15T06:38:34.769Z,21.40
2019-02-15T06:39:30.244Z,19.90
2019-02-15T06:40:30.238Z,17.90
2019-02-15T06:41:30.268Z,18.20
2019-02-15T06:42:30.237Z,16.90
2019-02-15T06:43:30.210Z,16.30
2019-02-15T06:44:30.188Z,16.70
2019-02-15T06:45:30.185Z,16.00
2019-02-15T06:46:30.168Z,17.30
2019-02-15T06:47:30.156Z,18.40
2019-02-15T06:48:30.159Z,15.50
2019-02-15T06:49:30.138Z,17.70
2019-02-15T06:50:30.125Z,16.40
2019-02-15T06:51:30.117Z,17.20
2019-02-15T06:52:30.104Z,17.40
2019-02-15T06:53:30.157Z,19.10
2019-02-15T06:54:30.086Z,17.50
2019-02-15T06:55:30.078Z,18.60
2019-02-15T06:56:30.066Z,16.40
2019-02-15T06:57:30.051Z,13.90
2019-02-15T06:58:31.814Z,16.50
2019-02-15T06:59:30.049Z,17.80
2019-02-15T07:00:30.016Z,14.70
2019-02-15T07:01:30.008Z,16.20
2019-02-15T07:02:29.998Z,13.60
2019-02-15T07:03:30.003Z,13.90
2019-02-15T07:04:29.990Z,15.40
2019-02-15T07:05:29.965Z,17.20
2019-02-15T07:06:29.952Z,16.20
2019-02-15T07:07:29.965Z,16.70
2019-02-15T07:08:29.937Z,15.90
2019-02-15T07:09:29.960Z,14.40
2019-02-15T07:10:29.920Z,14.90
2019-02-15T07:11:29.897Z,15.60
2019-02-15T07:12:29.888Z,17.60
2019-02-15T07:13:29.878Z,18.60
2019-02-15T07:14:29.879Z,16.40
2019-02-15T07:15:33.761Z,20.20
2019-02-15T07:16:29.847Z,15.70
2019-02-15T07:17:29.833Z,14.70
2019-02-15T07:18:29.822Z,14.70
2019-02-15T07:19:29.826Z,17.00
2019-02-15T07:20:29.803Z,17.20
2019-02-15T07:21:29.806Z,16.30
2019-02-15T07:22:29.781Z,17.00
2019-02-15T07:23:29.770Z,15.60
2019-02-15T07:24:29.769Z,16.70
2019-02-15T07:25:29.745Z,14.00
2019-02-15T07:26:29.752Z,16.20
2019-02-15T07:27:29.739Z,16.10
2019-02-15T07:28:29.723Z,16.90
2019-02-15T07:29:29.985Z,16.10
2019-02-15T07:30:29.701Z,14.10
2019-02-15T07:31:29.681Z,18.00
2019-02-15T07:32:29.686Z,14.80
2019-02-15T07:33:29.658Z,16.40
2019-02-15T07:34:29.663Z,14.40
2019-02-15T07:35:29.640Z,14.30
2019-02-15T07:36:29.647Z,15.40
2019-02-15T07:37:29.624Z,15.00
2019-02-15T07:38:29.608Z,14.00
2019-02-15T07:39:29.606Z,15.90
2019-02-15T07:40:29.584Z,16.90
2019-02-15T07:41:29.573Z,14.40
2019-02-15T07:42:29.561Z,17.60
2019-02-15T07:43:29.562Z,19.70
2019-02-15T07:44:29.576Z,16.60
2019-02-15T07:45:29.530Z,13.80
2019-02-15T07:46:29.523Z,13.60
2019-02-15T07:47:29.511Z,16.40
2019-02-15T07:48:29.502Z,15.50
2019-02-15T07:49:29.501Z,14.80
2019-02-15T07:50:29.484Z,15.10
2019-02-15T07:51:29.463Z,14.90
2019-02-15T07:52:29.452Z,17.60
2019-02-15T07:53:29.446Z,23.30
2019-02-15T07:54:29.478Z,20.30
2019-02-15T07:55:29.419Z,14.00
2019-02-15T07:56:29.412Z,16.20
2019-02-15T07:57:29.417Z,15.80
2019-02-15T07:58:29.385Z,15.50
2019-02-15T07:59:29.385Z,12.90
2019-02-15T08:00:29.405Z,14.90
2019-02-15T08:01:29.354Z,16.00
2019-02-15T08:02:29.345Z,15.20
2019-02-15T08:03:29.338Z,13.70
2019-02-15T08:04:29.321Z,14.90
2019-02-15T08:05:29.320Z,14.70
2019-02-15T08:06:29.322Z,15.00
2019-02-15T08:07:29.290Z,17.20
2019-02-15T08:08:29.278Z,13.70
2019-02-15T08:09:29.274Z,14.90
2019-02-15T08:10:29.271Z,16.30
2019-02-15T08:11:29.250Z,13.50
2019-02-15T08:12:29.236Z,15.50
2019-02-15T08:13:29.227Z,15.70
2019-02-15T08:14:29.230Z,14.20
2019-02-15T08:15:35.843Z,12.70
2019-02-15T08:16:30.193Z,14.70
2019-02-15T08:17:29.192Z,14.50
2019-02-15T08:18:29.189Z,13.90
2019-02-15T08:19:29.163Z,14.50
2019-02-15T08:20:29.167Z,12.70
2019-02-15T08:21:29.150Z,14.40
2019-02-15T08:22:29.139Z,16.50
2019-02-15T08:23:29.121Z,21.50
2019-02-15T08:24:29.105Z,25.80
2019-02-15T08:25:29.109Z,19.00
2019-02-15T08:26:29.090Z,15.90
2019-02-15T08:27:29.088Z,15.60
2019-02-15T08:28:29.064Z,21.00
2019-02-15T08:29:29.055Z,22.10
2019-02-15T08:30:29.055Z,18.80
2019-02-15T08:31:29.037Z,16.80
2019-02-15T08:32:29.033Z,17.90
2019-02-15T08:33:29.006Z,17.00
2019-02-15T08:34:29.002Z,18.90
2019-02-15T08:35:29.006Z,16.60
2019-02-15T08:36:28.976Z,16.90
2019-02-15T08:37:28.970Z,14.10
2019-02-15T08:38:28.960Z,19.60
2019-02-15T08:39:28.950Z,20.30
2019-02-15T08:40:29.064Z,17.40
2019-02-15T08:41:28.927Z,18.20
2019-02-15T08:42:28.917Z,15.80
2019-02-15T08:43:28.901Z,18.50
2019-02-15T08:44:28.892Z,16.90
2019-02-15T08:45:28.915Z,17.00
2019-02-15T08:46:28.882Z,15.30
2019-02-15T08:47:28.860Z,16.60
2019-02-15T08:48:28.851Z,18.60
2019-02-15T08:49:28.850Z,16.90
2019-02-15T08:50:28.842Z,15.60
2019-02-15T08:51:28.818Z,16.30
2019-02-15T08:52:28.808Z,14.30
2019-02-15T08:53:28.799Z,13.30
2019-02-15T08:54:28.783Z,15.90
2019-02-15T08:55:28.811Z,17.40
2019-02-15T08:56:28.763Z,14.30
2019-02-15T08:57:28.758Z,17.00
2019-02-15T08:58:28.738Z,16.30
2019-02-15T08:59:28.727Z,17.20
2019-02-15T09:00:28.739Z,20.70
2019-02-15T09:01:28.702Z,14.60
2019-02-15T09:02:28.692Z,15.60
2019-02-15T09:03:28.681Z,19.50
2019-02-15T09:04:28.667Z,22.50
2019-02-15T09:05:28.674Z,18.50
2019-02-15T09:06:28.655Z,18.60
2019-02-15T09:07:28.635Z,19.90
2019-02-15T09:08:30.011Z,16.50
2019-02-15T09:09:28.612Z,19.30
2019-02-15T09:10:28.665Z,17.10
2019-02-15T09:11:28.591Z,18.20
2019-02-15T09:12:28.584Z,18.40
2019-02-15T09:13:28.571Z,18.80
2019-02-15T09:14:28.559Z,20.10
2019-02-15T09:15:28.548Z,20.50
2019-02-15T09:16:28.555Z,16.50
2019-02-15T09:17:28.527Z,19.10
2019-02-15T09:18:28.528Z,18.80
2019-02-15T09:19:28.504Z,18.50
2019-02-15T09:20:28.507Z,19.50
2019-02-15T09:21:28.518Z,13.40
2019-02-15T09:22:28.491Z,18.60
2019-02-15T09:23:28.461Z,19.50
2019-02-15T09:24:28.448Z,20.10
2019-02-15T09:25:28.438Z,20.10
2019-02-15T09:26:28.437Z,16.30
2019-02-15T09:27:28.446Z,17.00
2019-02-15T09:28:29.165Z,18.60
2019-02-15T09:29:28.392Z,17.40
2019-02-15T09:30:28.380Z,20.70
2019-02-15T09:31:28.381Z,17.50
2019-02-15T09:32:28.375Z,17.90
2019-02-15T09:33:28.348Z,17.00
2019-02-15T09:34:28.337Z,17.30
2019-02-15T09:35:28.328Z,23.60
2019-02-15T09:36:28.329Z,19.80
2019-02-15T09:37:28.305Z,16.50
2019-02-15T09:38:28.297Z,16.40
2019-02-15T09:39:28.286Z,17.80
2019-02-15T09:40:28.274Z,16.50
2019-02-15T09:41:28.275Z,17.10
2019-02-15T09:42:28.249Z,19.00
2019-02-15T09:43:28.245Z,17.30
2019-02-15T09:44:28.234Z,18.30
2019-02-15T09:45:28.216Z,17.70
2019-02-15T09:46:28.216Z,17.50
2019-02-15T09:47:28.195Z,16.90
2019-02-15T09:48:28.191Z,16.80
2019-02-15T09:49:28.177Z,17.30
2019-02-15T09:50:28.163Z,19.10
2019-02-15T09:51:28.179Z,18.50
2019-02-15T09:52:28.146Z,18.10
2019-02-15T09:53:28.132Z,14.40
2019-02-15T09:54:28.125Z,18.20
2019-02-15T09:55:28.110Z,17.80
2019-02-15T09:56:28.110Z,19.50
2019-02-15T09:57:28.090Z,18.40
2019-02-15T09:58:28.078Z,16.90
2019-02-15T09:59:28.065Z,14.40
2019-02-15T10:00:28.059Z,15.60
2019-02-15T10:01:28.055Z,15.00
2019-02-15T10:02:28.030Z,36.60
2019-02-15T10:03:28.019Z,37.50
2019-02-15T10:04:28.010Z,93.40
2019-02-15T10:05:27.999Z,44.50
2019-02-15T10:06:27.999Z,19.60
2019-02-15T10:07:27.977Z,22.60
2019-02-15T10:08:27.978Z,18.70
2019-02-15T10:09:27.958Z,30.50
2019-02-15T10:10:27.974Z,23.20
2019-02-15T10:11:27.944Z,18.20
2019-02-15T10:12:27.921Z,16.60
2019-02-15T10:13:27.922Z,16.00
2019-02-15T10:14:27.896Z,16.80
2019-02-15T10:15:27.891Z,16.20
2019-02-15T10:16:30.712Z,16.30
2019-02-15T10:17:27.873Z,18.80
2019-02-15T10:18:27.853Z,15.10
2019-02-15T10:19:27.845Z,19.80
2019-02-15T10:20:27.839Z,16.90
2019-02-15T10:21:27.853Z,15.10
2019-02-15T10:22:27.812Z,19.00
2019-02-15T10:23:27.805Z,14.30
2019-02-15T10:24:27.792Z,19.20
2019-02-15T10:25:27.784Z,17.50
2019-02-15T10:26:27.795Z,15.30
2019-02-15T10:27:27.777Z,15.40
2019-02-15T10:28:27.750Z,16.60
2019-02-15T10:29:27.732Z,16.70
2019-02-15T10:30:27.728Z,16.60
2019-02-15T10:31:27.716Z,15.90
2019-02-15T10:32:27.721Z,14.90
2019-02-15T10:33:27.690Z,15.90
2019-02-15T10:34:27.698Z,16.40
2019-02-15T10:35:27.686Z,18.90
2019-02-15T10:36:27.660Z,16.30
2019-02-15T10:37:27.716Z,17.70
2019-02-15T10:38:27.645Z,17.10
2019-02-15T10:39:27.644Z,18.10
2019-02-15T10:40:27.617Z,15.40
2019-02-15T10:41:27.603Z,16.10
2019-02-15T10:42:27.606Z,18.40
2019-02-15T10:43:27.597Z,14.70
2019-02-15T10:44:27.575Z,14.70
2019-02-15T10:45:27.560Z,13.30
2019-02-15T10:46:27.546Z,15.60
2019-02-15T10:47:27.560Z,15.10
2019-02-15T10:48:27.528Z,12.70
2019-02-15T10:49:27.519Z,13.80
2019-02-15T10:50:27.510Z,14.50
2019-02-15T10:51:27.507Z,16.40
2019-02-15T10:52:27.501Z,16.50
2019-02-15T10:53:27.471Z,16.60
2019-02-15T10:54:27.466Z,14.70
2019-02-15T10:55:27.448Z,13.10
2019-02-15T10:56:27.449Z,13.50
2019-02-15T10:57:27.445Z,15.00
2019-02-15T10:58:27.414Z,14.80
2019-02-15T10:59:27.404Z,13.20
2019-02-15T11:00:27.392Z,14.20
2019-02-15T11:01:27.382Z,13.00
2019-02-15T11:02:27.385Z,13.30
2019-02-15T11:03:27.365Z,14.30
2019-02-15T11:04:27.364Z,12.70
2019-02-15T11:05:27.345Z,13.90
2019-02-15T11:06:27.325Z,12.90
2019-02-15T11:07:27.329Z,15.40
2019-02-15T11:08:27.305Z,14.20
2019-02-15T11:09:27.308Z,12.80
2019-02-15T11:10:27.286Z,14.10
2019-02-15T11:11:27.276Z,16.20
2019-02-15T11:12:27.275Z,13.90
2019-02-15T11:13:27.253Z,13.50
2019-02-15T11:14:27.241Z,13.80
2019-02-15T11:15:27.229Z,15.70
2019-02-15T11:16:27.236Z,11.80
2019-02-15T11:17:27.237Z,17.60
2019-02-15T11:18:27.197Z,13.70
2019-02-15T11:19:27.183Z,12.50
2019-02-15T11:20:27.209Z,14.90
2019-02-15T11:21:27.163Z,17.20
2019-02-15T11:22:27.162Z,16.90
2019-02-15T11:23:27.140Z,15.80
2019-02-15T11:24:27.138Z,19.90
2019-02-15T11:25:27.126Z,16.70
2019-02-15T11:26:27.115Z,15.20
2019-02-15T11:27:27.106Z,13.10
2019-02-15T11:28:27.093Z,11.80
2019-02-15T11:29:27.089Z,11.30
2019-02-15T11:30:27.069Z,12.00
2019-02-15T11:31:27.060Z,11.80
2019-02-15T11:32:27.065Z,11.90
2019-02-15T11:33:27.039Z,11.20
2019-02-15T11:34:27.026Z,12.30
2019-02-15T11:35:27.008Z,9.50
2019-02-15T11:36:26.997Z,10.00
2019-02-15T11:37:27.020Z,11.90
2019-02-15T11:38:26.985Z,11.70
2019-02-15T11:39:26.969Z,11.90
2019-02-15T11:40:26.955Z,11.90
2019-02-15T11:41:26.946Z,12.20
2019-02-15T11:42:26.933Z,10.80
2019-02-15T11:43:26.947Z,13.00
2019-02-15T11:44:26.920Z,9.30
2019-02-15T11:45:26.901Z,10.40
2019-02-15T11:46:26.889Z,12.20
2019-02-15T11:47:26.880Z,12.10
2019-02-15T11:48:26.880Z,12.60
2019-02-15T11:49:26.875Z,12.10
2019-02-15T11:50:26.845Z,13.00
2019-02-15T11:51:26.834Z,11.10
2019-02-15T11:52:26.822Z,13.40
2019-02-15T11:53:26.823Z,15.30
2019-02-15T11:54:26.809Z,10.40
2019-02-15T11:55:26.795Z,12.80
2019-02-15T11:56:26.790Z,11.20
2019-02-15T11:57:26.767Z,10.90
2019-02-15T11:58:26.771Z,15.90
2019-02-15T11:59:26.745Z,11.90
2019-02-15T12:00:26.740Z,9.60
2019-02-15T12:01:26.736Z,16.60
2019-02-15T12:02:26.709Z,13.00
2019-02-15T12:03:26.710Z,11.80
2019-02-15T12:04:26.694Z,11.00
2019-02-15T12:05:26.687Z,10.30
2019-02-15T12:06:26.675Z,9.90
2019-02-15T12:07:26.683Z,11.10
2019-02-15T12:08:26.668Z,10.80
2019-02-15T12:09:26.893Z,9.20
2019-02-15T12:10:26.644Z,11.70
2019-02-15T12:11:26.615Z,10.40
2019-02-15T12:12:26.601Z,11.70
2019-02-15T12:13:26.637Z,11.50
2019-02-15T12:14:26.581Z,11.10
2019-02-15T12:15:26.578Z,11.30
2019-02-15T12:16:26.558Z,15.20
2019-02-15T12:17:26.546Z,8.90
2019-02-15T12:18:26.546Z,8.90
2019-02-15T12:19:26.526Z,10.70
2019-02-15T12:20:26.509Z,9.30
2019-02-15T12:21:26.501Z,11.90
2019-02-15T12:22:26.496Z,13.00
2019-02-15T12:23:28.455Z,12.30
2019-02-15T12:24:26.476Z,13.60
2019-02-15T12:25:26.457Z,11.20
2019-02-15T12:26:26.446Z,10.70
2019-02-15T12:27:26.438Z,11.50
2019-02-15T12:28:26.462Z,10.50
2019-02-15T12:29:26.417Z,10.70
2019-02-15T12:30:26.408Z,11.80
2019-02-15T12:31:26.421Z,14.50
2019-02-15T12:32:26.383Z,12.70
2019-02-15T12:33:26.385Z,9.90
2019-02-15T12:34:26.362Z,9.30
2019-02-15T12:35:26.347Z,9.20
2019-02-15T12:36:26.349Z,9.80
2019-02-15T12:37:26.335Z,8.70
2019-02-15T12:38:26.347Z,9.70
2019-02-15T12:39:26.316Z,8.30
2019-02-15T12:40:26.293Z,8.50
2019-02-15T12:41:26.301Z,12.70
2019-02-15T12:42:26.273Z,8.70
2019-02-15T12:43:26.279Z,9.00
2019-02-15T12:44:27.709Z,8.40
2019-02-15T12:45:26.241Z,9.90
2019-02-15T12:46:26.228Z,9.60
2019-02-15T12:47:26.223Z,9.40
2019-02-15T12:48:26.226Z,8.70
2019-02-15T12:49:26.199Z,9.70
2019-02-15T12:50:26.183Z,10.40
2019-02-15T12:51:26.172Z,11.10
2019-02-15T12:52:26.173Z,12.20
2019-02-15T12:53:26.175Z,11.20